Saunderstown, Rhode Island
Current Conditions -  °F | °C
As of 7:53 PM on Saturday 20 Dec 2014 (Local Time) from KUUU Reporting Station
Haze Haze  
Wind Chill: 22°   Ceiling: 4800
Heat Index: 31°   Visibility: 6mi
Dew Point: 29°   Wind: 12mph
Humidity: 92%   Direction: 360°N
Pressure: 30.26"   Gusts: NA
Location:  41.51°N, 71.42°W
Report Text: KUUU 210053Z AUTO 36010KT 6SM BR SCT038 OVC048 M01/M02 A3026 RMK AO2 SLP248 T10061017
Loading
Personal Weather Stations






























Interactive Weather Map New forecast layout! Learn more

10-Day Weather Forecast

Advertisements
Track Severe Weather on mobile